Time;durP1;ratioP1;P1;durP2;ratioP2;P2;SDS_P1;SDS_P2;PMS_P1;PMS_P2;Temp;Humidity;BMP_temperature;BMP_pressure;BME280_temperature;BME280_humidity;BME280_pressure;Samples;Min_cycle;Max_cycle;Signal;HPM_P1;HPM_P2
2023/09/01 00:01:01;;;;;;;9.52;4.32;;;;;;;15.83;73.61;92854.56;2054655;69;20854;-78
2023/09/01 00:03:43;;;;;;;6.38;4.05;;;;;;;15.86;73.38;92854.03;2058146;69;20158;-78
2023/09/01 00:06:16;;;;;;;6.93;3.95;;;;;;;15.83;73.34;92855.31;2052088;69;20184;-78
2023/09/01 00:08:43;;;;;;;6.40;3.88;;;;;;;15.77;73.32;92860.00;2057724;69;20180;-78
2023/09/01 00:11:10;;;;;;;6.40;4.03;;;;;;;15.82;72.97;92848.19;2058013;69;20682;-79
2023/09/01 00:13:37;;;;;;;5.47;3.70;;;;;;;15.78;73.55;92844.44;2057170;69;20149;-78
2023/09/01 00:16:03;;;;;;;6.60;3.60;;;;;;;15.80;73.62;92845.22;2057952;69;20229;-78
2023/09/01 00:18:30;;;;;;;6.28;3.60;;;;;;;15.66;74.38;92838.94;2058008;69;20189;-78
2023/09/01 00:21:01;;;;;;;4.85;3.40;;;;;;;15.64;73.85;92838.84;2054731;69;20223;-78
2023/09/01 00:23:27;;;;;;;5.30;3.92;;;;;;;15.62;72.69;92844.41;2058025;69;20570;-78
2023/09/01 00:25:55;;;;;;;6.75;3.90;;;;;;;15.59;73.90;92848.53;2057541;69;21437;-78
2023/09/01 00:28:21;;;;;;;7.38;3.70;;;;;;;15.55;73.97;92854.75;2053873;69;20202;-78
2023/09/01 00:30:52;;;;;;;10.23;3.70;;;;;;;15.53;73.73;92851.81;2054460;69;20529;-78
2023/09/01 00:33:24;;;;;;;7.00;4.03;;;;;;;15.48;73.37;92842.38;2054477;69;20303;-78
2023/09/01 00:35:51;;;;;;;6.43;4.00;;;;;;;15.40;74.52;92841.31;2054154;69;20169;-78
2023/09/01 00:38:17;;;;;;;7.68;4.13;;;;;;;15.45;73.80;92851.47;2057135;69;20189;-79
2023/09/01 00:40:46;;;;;;;12.75;3.90;;;;;;;15.39;74.42;92851.91;2054199;69;20157;-78
2023/09/01 00:43:17;;;;;;;5.40;3.58;;;;;;;15.44;73.88;92852.81;2053877;69;20145;-76
2023/09/01 00:45:43;;;;;;;8.25;3.90;;;;;;;15.46;72.97;92852.94;2054433;69;20203;-76
2023/09/01 00:48:11;;;;;;;4.97;3.67;;;;;;;15.43;73.53;92854.94;2054001;69;20224;-79
2023/09/01 00:50:38;;;;;;;10.52;3.70;;;;;;;15.33;73.96;92845.22;2051481;70;20233;-77
2023/09/01 00:53:05;;;;;;;6.80;4.13;;;;;;;15.25;73.42;92849.16;2054264;69;20185;-78
2023/09/01 00:55:36;;;;;;;7.32;3.83;;;;;;;15.16;74.32;92853.00;2058107;69;20142;-77
2023/09/01 00:58:02;;;;;;;5.85;3.80;;;;;;;15.13;73.40;92854.28;2054607;69;20153;-77
2023/09/01 01:00:31;;;;;;;8.52;4.05;;;;;;;15.14;73.53;92860.69;2054335;69;20240;-78
2023/09/01 01:03:06;;;;;;;5.93;3.47;;;;;;;15.09;74.09;92850.53;2054865;69;20240;-78
2023/09/01 01:05:43;;;;;;;6.57;3.70;;;;;;;14.99;74.76;92845.84;2058012;69;20197;-78
2023/09/01 01:08:21;;;;;;;5.90;3.40;;;;;;;14.93;74.46;92850.47;2058179;69;20145;-77
2023/09/01 01:11:06;;;;;;;6.18;4.07;;;;;;;14.87;75.16;92850.22;2054306;69;20536;-78
2023/09/01 01:13:37;;;;;;;8.68;4.18;;;;;;;14.91;74.73;92848.28;2054659;69;20645;-78
2023/09/01 01:16:04;;;;;;;7.05;4.18;;;;;;;14.76;75.44;92851.84;2054514;69;20193;-79
2023/09/01 01:18:32;;;;;;;8.13;4.18;;;;;;;14.80;75.07;92849.19;2054630;69;20169;-78
2023/09/01 01:21:16;;;;;;;8.65;4.13;;;;;;;14.82;74.98;92840.78;2057668;69;20241;-77
2023/09/01 01:23:42;;;;;;;8.38;3.85;;;;;;;14.84;75.14;92842.97;2057940;69;20168;-78
2023/09/01 01:26:14;;;;;;;7.82;4.22;;;;;;;14.74;75.43;92849.63;2058155;69;20146;-78
2023/09/01 01:28:39;;;;;;;7.53;3.70;;;;;;;14.78;75.08;92843.41;2054837;69;20126;-77
2023/09/01 01:31:05;;;;;;;5.93;4.10;;;;;;;14.71;75.54;92838.84;2053888;69;20240;-77
2023/09/01 01:33:43;;;;;;;8.10;4.25;;;;;;;14.71;75.23;92841.69;2054447;69;20227;-78
2023/09/01 01:36:46;;;;;;;7.28;4.05;;;;;;;14.71;75.66;92839.56;2058081;69;20188;-78
2023/09/01 01:39:20;;;;;;;6.90;4.07;;;;;;;14.65;75.65;92838.53;2054054;69;20158;-79
2023/09/01 01:41:53;;;;;;;7.72;3.75;;;;;;;14.64;75.13;92837.06;2053971;69;20161;-78
2023/09/01 01:44:26;;;;;;;5.68;4.18;;;;;;;14.06;77.91;92829.97;2057697;69;20153;-78
2023/09/01 01:46:52;;;;;;;7.53;4.82;;;;;;;14.32;77.25;92834.09;2057928;69;20261;-78
2023/09/01 01:49:19;;;;;;;7.32;4.40;;;;;;;14.35;76.69;92832.13;2054358;69;20154;-78
2023/09/01 01:51:47;;;;;;;8.15;4.50;;;;;;;14.46;75.46;92831.97;2054237;69;20153;-78
2023/09/01 01:54:16;;;;;;;7.10;4.65;;;;;;;14.45;75.53;92841.09;2058084;69;20181;-78
2023/09/01 01:56:41;;;;;;;8.38;4.80;;;;;;;14.46;75.62;92836.91;2057864;69;20170;-78
2023/09/01 01:59:08;;;;;;;10.43;5.35;;;;;;;14.10;77.52;92836.56;2051879;69;20166;-78
2023/09/01 02:01:34;;;;;;;7.18;5.05;;;;;;;14.07;78.73;92846.34;2054051;69;20606;-79
2023/09/01 02:04:00;;;;;;;9.23;4.93;;;;;;;14.30;77.04;92851.00;2056761;69;20157;-78
2023/09/01 02:06:25;;;;;;;7.15;4.72;;;;;;;14.18;77.73;92839.81;2057685;69;20236;-78
2023/09/01 02:08:51;;;;;;;8.18;4.30;;;;;;;14.27;76.00;92837.38;2051908;69;20256;-78
2023/09/01 02:11:16;;;;;;;6.93;4.32;;;;;;;14.01;78.78;92837.53;2057849;69;20196;-78
2023/09/01 02:13:43;;;;;;;5.25;4.20;;;;;;;14.19;77.07;92841.25;2057217;69;20819;-78
2023/09/01 02:16:09;;;;;;;5.40;4.32;;;;;;;14.22;77.22;92842.84;2054561;69;20144;-79
2023/09/01 02:18:35;;;;;;;7.72;4.65;;;;;;;13.62;80.62;92852.53;2054465;69;20153;-79
2023/09/01 02:21:02;;;;;;;8.50;4.20;;;;;;;13.90;79.35;92839.13;2054439;69;20150;-78
2023/09/01 02:23:28;;;;;;;7.13;4.30;;;;;;;14.03;78.04;92837.63;2054210;69;20137;-78
2023/09/01 02:25:53;;;;;;;10.00;4.70;;;;;;;14.06;77.99;92841.28;2057225;69;20165;-78
2023/09/01 02:28:19;;;;;;;8.55;4.05;;;;;;;14.10;77.44;92839.41;2054341;69;20146;-78
2023/09/01 02:30:45;;;;;;;9.00;4.05;;;;;;;14.09;77.47;92837.19;2054533;69;20149;-78
2023/09/01 02:33:12;;;;;;;8.73;4.53;;;;;;;14.06;77.59;92849.78;2054365;69;20187;-78
2023/09/01 02:35:44;;;;;;;6.80;4.50;;;;;;;14.11;77.60;92849.38;2054156;69;20188;-78
2023/09/01 02:38:14;;;;;;;6.20;4.13;;;;;;;14.14;77.16;92838.88;2054454;69;20231;-78
2023/09/01 02:40:41;;;;;;;5.32;3.97;;;;;;;14.17;76.77;92840.44;2057658;69;20181;-78
2023/09/01 02:43:07;;;;;;;5.82;4.13;;;;;;;14.06;77.53;92833.53;2057645;69;20150;-78
2023/09/01 02:45:34;;;;;;;6.10;4.35;;;;;;;14.16;76.41;92833.31;2057793;69;20196;-78
2023/09/01 02:48:00;;;;;;;6.20;4.00;;;;;;;14.21;76.10;92835.00;2057396;69;20162;-78
2023/09/01 02:50:27;;;;;;;6.53;4.00;;;;;;;14.05;76.83;92829.25;2057950;69;20612;-78
2023/09/01 02:52:53;;;;;;;7.28;4.30;;;;;;;14.12;76.44;92831.03;2054670;69;20151;-79
2023/09/01 02:55:20;;;;;;;6.47;4.10;;;;;;;14.08;76.94;92836.47;2054125;69;20161;-79
2023/09/01 02:57:46;;;;;;;6.45;4.45;;;;;;;13.97;77.24;92834.47;2057402;69;20154;-78
2023/09/01 03:00:18;;;;;;;6.70;4.88;;;;;;;13.84;77.33;92829.59;2053679;69;20164;-78
2023/09/01 03:02:44;;;;;;;8.35;4.47;;;;;;;13.91;77.02;92837.75;2054559;69;20220;-77
2023/09/01 03:05:11;;;;;;;7.30;4.50;;;;;;;13.92;76.77;92833.53;2057607;69;20247;-77
2023/09/01 03:07:38;;;;;;;7.85;4.45;;;;;;;13.94;77.43;92835.75;2053573;69;20157;-79
2023/09/01 03:10:07;;;;;;;7.57;4.78;;;;;;;13.93;77.54;92828.66;2054506;69;20623;-77
2023/09/01 03:12:36;;;;;;;10.15;4.43;;;;;;;13.92;74.58;92832.81;2057708;69;20211;-77
2023/09/01 03:15:02;;;;;;;7.55;5.05;;;;;;;13.03;82.18;92832.44;2054783;69;20184;-77
2023/09/01 03:17:28;;;;;;;6.55;5.05;;;;;;;13.47;80.27;92836.22;2055143;69;20154;-77
2023/09/01 03:19:53;;;;;;;8.40;4.75;;;;;;;13.62;79.21;92823.53;2058284;69;20498;-77
2023/09/01 03:22:19;;;;;;;8.63;4.80;;;;;;;13.73;78.53;92846.03;2055020;69;20140;-78
2023/09/01 03:24:45;;;;;;;6.35;4.65;;;;;;;13.78;77.54;92840.59;2054291;69;20160;-79
2023/09/01 03:27:10;;;;;;;6.47;4.60;;;;;;;13.79;77.39;92845.63;2058176;69;20154;-79
2023/09/01 03:29:36;;;;;;;7.72;5.05;;;;;;;13.32;80.58;92851.66;2058244;69;20616;-78
2023/09/01 03:32:02;;;;;;;6.35;4.40;;;;;;;13.52;79.51;92854.13;2055078;69;20264;-79
2023/09/01 03:34:30;;;;;;;7.10;4.30;;;;;;;13.67;78.11;92851.38;2055146;69;20164;-78
2023/09/01 03:36:55;;;;;;;6.85;4.03;;;;;;;13.75;78.67;92856.75;2051661;69;20162;-79
2023/09/01 03:39:21;;;;;;;6.25;4.30;;;;;;;13.75;78.84;92850.34;2055083;69;20617;-79
2023/09/01 03:41:47;;;;;;;5.82;4.35;;;;;;;13.72;77.93;92846.69;2055047;69;20225;-78
2023/09/01 03:44:12;;;;;;;7.32;4.85;;;;;;;13.20;81.10;92856.66;2058229;69;20152;-79
2023/09/01 03:46:39;;;;;;;9.82;5.10;;;;;;;13.57;77.92;92855.78;2057617;69;20165;-78
2023/09/01 03:49:05;;;;;;;5.68;4.60;;;;;;;13.63;78.42;92859.66;2053887;70;20217;-79
2023/09/01 03:51:30;;;;;;;8.05;4.68;;;;;;;13.68;78.10;92840.81;2051912;70;20146;-80
2023/09/01 03:53:56;;;;;;;9.15;4.72;;;;;;;13.66;78.02;92852.03;2055259;70;20669;-80
2023/09/01 03:56:23;;;;;;;9.60;4.50;;;;;;;13.71;78.51;92848.78;2051939;70;20238;-80
2023/09/01 03:58:48;;;;;;;7.22;4.60;;;;;;;13.76;77.71;92840.50;2053840;69;20259;-79
2023/09/01 04:01:14;;;;;;;11.25;4.70;;;;;;;13.81;77.39;92847.81;2055152;69;20612;-79
2023/09/01 04:03:42;;;;;;;9.23;4.60;;;;;;;13.81;77.46;92850.66;2058552;69;20517;-79
2023/09/01 04:06:08;;;;;;;7.90;4.18;;;;;;;13.91;77.04;92860.38;2055218;69;20692;-79
2023/09/01 04:08:34;;;;;;;8.35;4.85;;;;;;;13.65;78.52;92859.78;2058541;69;20285;-78
2023/09/01 04:11:01;;;;;;;10.52;5.18;;;;;;;13.72;77.70;92858.00;2054854;69;20142;-79
2023/09/01 04:13:27;;;;;;;10.65;5.03;;;;;;;13.80;78.19;92863.34;2057810;69;20162;-78
2023/09/01 04:15:52;;;;;;;6.93;4.40;;;;;;;13.86;77.54;92870.03;2055106;69;20156;-78
2023/09/01 04:18:18;;;;;;;8.43;4.63;;;;;;;13.94;76.53;92864.78;2053110;69;20568;-77
2023/09/01 04:20:48;;;;;;;7.65;4.30;;;;;;;13.94;77.63;92866.91;2054730;69;20591;-79
2023/09/01 04:23:14;;;;;;;10.25;4.53;;;;;;;13.99;77.41;92869.28;2054924;69;20290;-79
2023/09/01 04:25:44;;;;;;;7.97;4.43;;;;;;;14.02;77.24;92869.38;2055125;69;20145;-79
2023/09/01 04:28:10;;;;;;;12.88;4.90;;;;;;;14.02;77.70;92867.31;2055092;69;20677;-79
2023/09/01 04:30:36;;;;;;;6.60;4.60;;;;;;;14.01;77.63;92865.09;2054800;69;20138;-80
2023/09/01 04:33:06;;;;;;;7.03;4.78;;;;;;;14.10;77.24;92864.88;2055128;69;20698;-80
2023/09/01 04:35:32;;;;;;;8.55;4.57;;;;;;;14.11;75.65;92859.94;2054184;70;20248;-78
2023/09/01 04:37:58;;;;;;;8.10;4.38;;;;;;;14.15;75.09;92865.81;2055106;70;20172;-79
2023/09/01 04:40:24;;;;;;;6.72;4.53;;;;;;;14.18;76.57;92867.38;2051458;70;20286;-80
2023/09/01 04:42:50;;;;;;;8.55;4.45;;;;;;;14.16;76.27;92870.13;2055035;69;20150;-80
2023/09/01 04:45:16;;;;;;;7.80;5.15;;;;;;;14.23;76.06;92860.56;2051291;70;20222;-82
2023/09/01 04:47:42;;;;;;;11.25;5.40;;;;;;;14.14;76.27;92853.03;2054359;69;20181;-80
2023/09/01 04:50:08;;;;;;;7.35;5.22;;;;;;;14.18;75.62;92868.13;2058324;69;20233;-80
2023/09/01 04:52:33;;;;;;;11.07;5.40;;;;;;;14.23;74.62;92861.28;2058420;69;20141;-80
2023/09/01 04:54:59;;;;;;;8.60;5.80;;;;;;;13.83;77.84;92864.91;2055227;69;20141;-80
2023/09/01 04:57:24;;;;;;;9.85;5.28;;;;;;;14.00;78.26;92864.38;2055043;69;20169;-81
2023/09/01 04:59:50;;;;;;;7.85;5.18;;;;;;;14.19;76.93;92866.75;2050554;70;20150;-80
2023/09/01 05:02:18;;;;;;;9.65;6.40;;;;;;;14.00;77.69;92864.38;2050954;70;20214;-80
2023/09/01 05:04:44;;;;;;;9.23;5.95;;;;;;;14.15;76.26;92865.81;2050591;70;20524;-80
2023/09/01 05:07:10;;;;;;;11.02;5.43;;;;;;;14.18;76.51;92873.78;2050655;70;20169;-79
2023/09/01 05:09:35;;;;;;;11.35;6.25;;;;;;;14.20;76.70;92870.31;2050828;70;20702;-79
2023/09/01 05:12:01;;;;;;;9.68;5.90;;;;;;;14.21;77.33;92868.97;2049934;70;20217;-81
2023/09/01 05:14:27;;;;;;;8.25;4.90;;;;;;;14.05;77.73;92874.53;2050796;70;20153;-80
2023/09/01 05:16:53;;;;;;;7.38;4.95;;;;;;;14.19;77.56;92880.16;2054990;69;20138;-80
2023/09/01 05:19:18;;;;;;;10.25;5.25;;;;;;;14.30;76.96;92881.44;2051339;70;20158;-81
2023/09/01 05:21:44;;;;;;;6.65;5.20;;;;;;;14.39;76.18;92871.97;2052509;70;20177;-81
2023/09/01 05:24:09;;;;;;;10.38;5.18;;;;;;;14.51;75.43;92878.25;2054886;69;20236;-80
2023/09/01 05:26:35;;;;;;;6.70;5.13;;;;;;;14.55;76.48;92878.44;2051488;70;20177;-81
2023/09/01 05:29:01;;;;;;;6.03;4.95;;;;;;;14.54;75.97;92876.25;2054323;70;20153;-81
2023/09/01 05:31:27;;;;;;;7.50;5.10;;;;;;;14.47;76.20;92887.25;2050470;70;20161;-80
2023/09/01 05:33:54;;;;;;;11.40;5.50;;;;;;;14.31;77.35;92886.44;2051299;70;20513;-80
2023/09/01 05:36:20;;;;;;;8.13;5.13;;;;;;;14.51;77.05;92877.50;2051284;70;20146;-79
2023/09/01 05:38:45;;;;;;;7.97;5.45;;;;;;;14.52;77.37;92879.69;2054956;70;20142;-80
2023/09/01 05:41:13;;;;;;;8.95;6.15;;;;;;;14.52;77.63;92878.97;2051359;70;20134;-80
2023/09/01 05:43:38;;;;;;;13.48;7.18;;;;;;;14.53;77.22;92881.19;2054409;70;20157;-80
2023/09/01 05:46:05;;;;;;;17.15;9.07;;;;;;;14.42;77.54;92885.56;2051284;70;20621;-80
2023/09/01 05:48:31;;;;;;;16.08;8.75;;;;;;;14.51;76.85;92880.34;2054907;70;20149;-80
2023/09/01 05:50:56;;;;;;;14.45;8.13;;;;;;;14.61;76.40;92881.56;2051275;70;20153;-80
2023/09/01 05:53:22;;;;;;;14.30;7.45;;;;;;;14.63;76.45;92892.28;2053747;70;20221;-78
2023/09/01 05:55:48;;;;;;;15.23;6.85;;;;;;;14.63;76.96;92893.00;2050746;70;20182;-81
2023/09/01 05:58:14;;;;;;;15.80;8.38;;;;;;;14.60;76.74;92885.78;2054200;70;20158;-81
2023/09/01 06:00:40;;;;;;;10.65;6.47;;;;;;;14.63;77.27;92889.44;2054522;70;20160;-81
2023/09/01 06:03:06;;;;;;;9.60;5.88;;;;;;;14.53;77.40;92891.78;2055075;69;20286;-81
2023/09/01 06:05:32;;;;;;;11.48;6.05;;;;;;;14.60;76.38;92897.09;2057712;69;20206;-82
2023/09/01 06:07:58;;;;;;;10.82;6.20;;;;;;;14.41;78.37;92895.44;2058296;69;20149;-82
2023/09/01 06:10:23;;;;;;;10.63;6.25;;;;;;;14.65;77.56;92898.78;2058293;69;20232;-81
2023/09/01 06:12:49;;;;;;;12.88;6.68;;;;;;;14.76;76.57;92894.34;2058175;69;20134;-81
2023/09/01 06:15:15;;;;;;;11.43;5.93;;;;;;;14.82;77.11;92897.47;2054723;69;20589;-80
2023/09/01 06:17:41;;;;;;;11.10;6.28;;;;;;;14.94;76.22;92895.22;2057563;69;20196;-80
2023/09/01 06:20:09;;;;;;;13.38;6.57;;;;;;;14.99;75.23;92893.31;2054579;69;20150;-79
2023/09/01 06:22:34;;;;;;;9.60;5.75;;;;;;;15.04;76.52;92894.97;2055051;69;20220;-85
2023/09/01 06:25:00;;;;;;;11.52;6.65;;;;;;;15.00;76.13;92898.34;2057619;69;20157;-82
2023/09/01 06:27:25;;;;;;;8.85;6.32;;;;;;;15.03;76.60;92896.34;2058041;69;20137;-81
2023/09/01 06:29:51;;;;;;;8.60;5.50;;;;;;;15.22;75.18;92895.09;2057716;69;20149;-81
2023/09/01 06:32:17;;;;;;;10.55;5.38;;;;;;;15.33;74.91;92896.28;2058066;69;20474;-80
2023/09/01 06:34:43;;;;;;;8.75;5.50;;;;;;;15.27;76.14;92896.03;2058093;69;20175;-81
2023/09/01 06:37:08;;;;;;;10.70;6.65;;;;;;;15.30;76.12;92889.03;2057798;69;20612;-79
2023/09/01 06:39:34;;;;;;;11.90;6.57;;;;;;;15.41;75.83;92894.56;2058285;69;20150;-82
2023/09/01 06:41:59;;;;;;;13.48;7.03;;;;;;;15.51;75.82;92903.53;2053907;70;20197;-81
2023/09/01 06:44:26;;;;;;;11.35;6.63;;;;;;;15.48;76.53;92893.44;2053721;69;20515;-81
2023/09/01 06:46:51;;;;;;;10.63;6.00;;;;;;;15.68;75.81;92885.19;2057375;69;20150;-81
2023/09/01 06:49:17;;;;;;;10.98;5.90;;;;;;;15.87;75.53;92894.50;2058703;69;20152;-81
2023/09/01 06:51:42;;;;;;;14.35;7.80;;;;;;;15.68;75.36;92892.97;2058632;69;20168;-80
2023/09/01 06:54:08;;;;;;;12.38;7.30;;;;;;;15.83;76.61;92900.00;2058596;69;20514;-81
2023/09/01 06:56:34;;;;;;;9.85;6.80;;;;;;;16.15;76.22;92898.56;2057721;69;20145;-81
2023/09/01 06:58:59;;;;;;;12.10;6.85;;;;;;;16.41;74.79;92895.41;2058384;69;20153;-81
2023/09/01 07:01:27;;;;;;;9.45;5.90;;;;;;;16.62;74.53;92883.50;2057920;69;20238;-82
2023/09/01 07:03:54;;;;;;;10.35;6.13;;;;;;;16.83;73.89;92887.22;2058391;69;20145;-81
2023/09/01 07:06:19;;;;;;;7.82;5.85;;;;;;;16.92;71.00;92875.53;2057858;69;20138;-82
2023/09/01 07:08:45;;;;;;;8.15;5.20;;;;;;;16.87;71.67;92873.16;2058480;69;20144;-81
2023/09/01 07:11:14;;;;;;;7.20;5.32;;;;;;;16.90;72.85;92888.91;2058361;69;20138;-81
2023/09/01 07:13:40;;;;;;;9.13;5.35;;;;;;;16.90;71.65;92883.94;2058414;69;20597;-81
2023/09/01 07:16:06;;;;;;;8.38;4.15;;;;;;;16.92;69.45;92874.78;2057377;69;20156;-81
2023/09/01 07:18:32;;;;;;;7.15;4.53;;;;;;;17.15;69.05;92887.78;2057923;69;20177;-81
2023/09/01 07:21:00;;;;;;;10.15;3.95;;;;;;;17.27;68.81;92894.69;2058619;69;20305;-81
2023/09/01 07:23:26;;;;;;;5.00;4.20;;;;;;;17.34;68.94;92894.91;2054290;69;20738;-80
2023/09/01 07:25:53;;;;;;;7.40;4.18;;;;;;;17.54;68.84;92898.53;2058398;69;20176;-81
2023/09/01 07:28:18;;;;;;;5.75;4.18;;;;;;;17.64;68.22;92898.19;2057936;69;20533;-81
2023/09/01 07:30:44;;;;;;;5.05;3.88;;;;;;;17.71;67.93;92894.91;2058491;69;20137;-81
2023/09/01 07:33:10;;;;;;;7.60;3.70;;;;;;;17.88;66.53;92893.44;2058366;69;20153;-81
2023/09/01 07:35:35;;;;;;;5.40;3.60;;;;;;;18.00;66.80;92896.00;2057653;69;20233;-81
2023/09/01 07:38:03;;;;;;;4.97;4.20;;;;;;;17.71;67.85;92894.19;2057468;69;20261;-82
2023/09/01 07:40:32;;;;;;;7.22;3.88;;;;;;;17.88;67.89;92898.41;2055072;69;20166;-81
2023/09/01 07:42:59;;;;;;;8.25;3.95;;;;;;;18.33;67.05;92900.75;2055047;70;20161;-81
2023/09/01 07:45:26;;;;;;;6.85;3.65;;;;;;;18.60;66.03;92898.78;2057366;69;20157;-81
2023/09/01 07:47:52;;;;;;;8.40;3.83;;;;;;;18.70;63.77;92893.47;2058454;69;20229;-81
2023/09/01 07:50:17;;;;;;;5.97;4.22;;;;;;;18.87;62.61;92897.59;2055993;69;20152;-81
2023/09/01 07:52:43;;;;;;;9.15;3.85;;;;;;;19.25;63.03;92895.28;2055024;69;20235;-81
2023/09/01 07:55:09;;;;;;;4.95;3.53;;;;;;;19.51;62.25;92898.94;2058141;69;20168;-81
2023/09/01 07:57:34;;;;;;;7.32;3.80;;;;;;;19.65;61.19;92897.94;2058200;69;20141;-81
2023/09/01 08:00:00;;;;;;;6.45;3.90;;;;;;;19.44;60.02;92902.28;2054991;70;20554;-81
2023/09/01 08:02:27;;;;;;;5.63;3.60;;;;;;;19.71;59.31;92898.88;2054931;70;20559;-82
2023/09/01 08:04:52;;;;;;;3.72;3.30;;;;;;;20.10;57.18;92910.69;2054971;70;20260;-81
2023/09/01 08:07:18;;;;;;;5.45;3.58;;;;;;;20.37;56.14;92904.31;2054771;70;20196;-82
2023/09/01 08:09:43;;;;;;;4.88;3.40;;;;;;;20.77;53.73;92901.84;2054572;70;20282;-82
2023/09/01 08:12:09;;;;;;;4.13;3.15;;;;;;;20.38;54.59;92902.91;2051364;70;20196;-81
2023/09/01 08:14:35;;;;;;;3.83;3.40;;;;;;;20.89;53.75;92906.41;2054766;70;20606;-82
2023/09/01 08:17:00;;;;;;;3.50;3.20;;;;;;;21.47;53.41;92901.44;2054919;70;20208;-82
2023/09/01 08:19:26;;;;;;;5.50;3.50;;;;;;;20.89;52.03;92906.41;2053131;70;20173;-82
2023/09/01 08:21:51;;;;;;;5.70;3.20;;;;;;;20.61;52.20;92894.97;2054831;70;20149;-83
2023/09/01 08:24:17;;;;;;;4.40;3.10;;;;;;;21.09;51.28;92909.09;2055018;70;20491;-83
2023/09/01 08:26:43;;;;;;;3.42;3.00;;;;;;;21.14;51.26;92908.50;2055065;70;20204;-82
2023/09/01 08:29:08;;;;;;;5.15;3.05;;;;;;;21.17;51.72;92903.56;2051613;70;20145;-82
2023/09/01 08:31:34;;;;;;;10.10;3.60;;;;;;;21.44;50.93;92907.81;2054870;69;20621;-82
2023/09/01 08:33:59;;;;;;;4.15;3.05;;;;;;;20.99;51.69;92906.69;2054847;70;20563;-83
2023/09/01 08:36:26;;;;;;;4.38;3.38;;;;;;;20.98;52.19;92905.22;2054918;70;20624;-83
2023/09/01 08:38:51;;;;;;;4.70;3.38;;;;;;;21.15;52.85;92907.09;2054991;70;20661;-82
2023/09/01 08:41:17;;;;;;;7.15;3.30;;;;;;;21.02;53.17;92908.91;2054825;69;20153;-82
2023/09/01 08:43:45;;;;;;;4.30;3.40;;;;;;;21.03;53.19;92910.38;2054514;69;20249;-83
2023/09/01 08:46:13;;;;;;;5.00;3.63;;;;;;;20.93;53.17;92915.84;2054920;70;20541;-82
2023/09/01 08:48:38;;;;;;;4.30;3.30;;;;;;;21.23;53.59;92918.03;2054857;70;20150;-83
2023/09/01 08:51:05;;;;;;;5.65;3.53;;;;;;;20.86;53.00;92904.94;2054979;70;20304;-83
2023/09/01 08:53:32;;;;;;;5.28;3.70;;;;;;;21.14;54.04;92913.50;2054914;70;20142;-83
2023/09/01 08:55:57;;;;;;;3.95;3.50;;;;;;;21.32;53.20;92905.38;2054721;69;20143;-83
2023/09/01 08:58:23;;;;;;;7.20;5.43;;;;;;;20.92;52.89;92905.06;2054772;70;20157;-82
2023/09/01 09:00:49;;;;;;;8.98;5.13;;;;;;;20.78;53.77;92899.72;2054938;70;20154;-83
2023/09/01 09:03:16;;;;;;;6.68;4.15;;;;;;;20.96;52.89;92894.47;2055058;70;20233;-83
2023/09/01 09:05:44;;;;;;;10.00;6.90;;;;;;;20.94;52.65;92897.28;2055069;70;20166;-83
2023/09/01 09:08:10;;;;;;;7.45;5.40;;;;;;;21.35;52.40;92900.41;2054346;70;20149;-83
2023/09/01 09:10:41;;;;;;;5.07;3.72;;;;;;;21.46;53.05;92888.53;2054821;70;20141;-80
2023/09/01 09:13:29;;;;;;;5.45;3.70;;;;;;;20.95;52.51;92886.56;2054247;70;20145;-82
2023/09/01 09:16:24;;;;;;;9.00;4.00;;;;;;;;;;2051520;70;20142;-82
2023/09/01 09:18:50;;;;;;;5.72;3.50;;;;;;;22.08;51.40;92891.34;2051347;69;20146;-82
2023/09/01 09:21:29;;;;;;;6.15;3.30;;;;;;;22.20;51.30;92890.91;2054374;70;20161;-82
2023/09/01 09:23:59;;;;;;;6.35;3.67;;;;;;;22.86;49.70;92895.00;2054863;70;20586;-82
2023/09/01 09:26:29;;;;;;;3.47;3.10;;;;;;;23.19;48.98;92885.59;2055133;70;20599;-82
2023/09/01 09:29:02;;;;;;;3.80;3.28;;;;;;;23.23;47.44;92891.41;2054797;69;20134;-82
2023/09/01 09:31:36;;;;;;;5.00;3.67;;;;;;;23.59;48.69;92890.50;2053791;70;20557;-82
2023/09/01 09:34:12;;;;;;;4.82;3.28;;;;;;;23.94;46.38;92888.19;2054727;70;20228;-83
2023/09/01 09:36:38;;;;;;;4.35;3.10;;;;;;;23.72;45.81;92902.94;2054813;70;20126;-82
2023/09/01 09:39:06;;;;;;;4.18;3.25;;;;;;;23.62;46.74;92900.63;2054874;70;20149;-83
2023/09/01 09:41:47;;;;;;;6.43;3.40;;;;;;;24.01;45.24;92899.09;2053361;70;20186;-82
2023/09/01 09:44:22;;;;;;;6.13;3.15;;;;;;;23.79;45.12;92893.75;2053958;70;20257;-82
2023/09/01 09:46:49;;;;;;;4.20;3.22;;;;;;;24.61;43.89;92891.22;2054289;70;20720;-83
2023/09/01 09:49:14;;;;;;;3.53;3.03;;;;;;;25.46;43.21;92894.94;2054387;70;20150;-83
2023/09/01 09:51:42;;;;;;;3.63;2.97;;;;;;;26.35;42.80;92889.09;2054868;69;20157;-83
2023/09/01 09:54:10;;;;;;;4.22;2.80;;;;;;;26.33;41.47;92891.94;2054872;70;20158;-83
2023/09/01 09:56:38;;;;;;;5.05;2.63;;;;;;;26.24;42.04;92889.72;2054864;70;20138;-84
2023/09/01 09:59:05;;;;;;;3.20;2.58;;;;;;;26.04;38.52;92888.19;2054327;70;20267;-81
2023/09/01 10:01:43;;;;;;;2.97;2.67;;;;;;;27.19;39.01;92882.91;2054706;70;20225;-82
2023/09/01 10:04:09;;;;;;;3.30;3.00;;;;;;;27.84;37.66;92880.03;2054294;70;20718;-81
2023/09/01 10:06:35;;;;;;;4.20;2.92;;;;;;;28.44;35.35;92884.28;2054736;70;20244;-81
2023/09/01 10:09:05;;;;;;;3.28;2.40;;;;;;;27.62;35.65;92881.47;2054228;70;20244;-84
2023/09/01 10:11:32;;;;;;;5.22;2.80;;;;;;;28.57;36.49;92873.38;2054895;70;20212;-82
2023/09/01 10:13:59;;;;;;;3.55;2.70;;;;;;;28.81;37.67;92869.63;2054337;70;20185;-82
2023/09/01 10:16:25;;;;;;;4.40;2.90;;;;;;;29.78;36.33;92870.47;2054439;70;20150;-82
2023/09/01 10:18:52;;;;;;;4.15;2.63;;;;;;;29.20;34.61;92873.06;2054799;70;20153;-82
2023/09/01 10:21:20;;;;;;;4.25;2.60;;;;;;;28.12;34.37;92868.41;2054513;70;20617;-81
2023/09/01 10:23:47;;;;;;;3.47;2.60;;;;;;;29.47;34.75;92864.19;2055392;70;20154;-82
2023/09/01 10:26:27;;;;;;;4.43;2.60;;;;;;;30.89;33.34;92870.81;2055028;70;20521;-82
2023/09/01 10:28:57;;;;;;;3.45;2.83;;;;;;;31.20;32.33;92864.56;2055180;69;20344;-82
2023/09/01 10:31:24;;;;;;;3.00;2.60;;;;;;;31.88;32.16;92853.38;2055206;70;20256;-83
2023/09/01 10:34:03;;;;;;;4.10;2.85;;;;;;;31.12;32.00;92851.59;2054633;70;20147;-82
2023/09/01 10:36:29;;;;;;;5.10;2.50;;;;;;;32.25;30.73;92849.81;2055476;70;20590;-82
2023/09/01 10:39:03;;;;;;;3.35;2.67;;;;;;;32.93;29.28;92846.34;2055559;70;20150;-83
2023/09/01 10:42:07;;;;;;;3.10;2.28;;;;;;;32.75;28.66;92864.88;2055419;70;20525;-83
2023/09/01 10:45:08;;;;;;;3.58;2.40;;;;;;;33.35;28.88;92841.75;2040948;70;20179;-83
2023/09/01 10:47:34;;;;;;;5.90;2.45;;;;;;;35.35;25.83;92848.22;2040782;70;20170;-83
2023/09/01 10:50:01;;;;;;;4.35;2.50;;;;;;;35.80;26.29;92841.69;2041561;70;20143;-83
2023/09/01 10:52:31;;;;;;;2.25;1.95;;;;;;;35.06;25.37;92840.28;2041452;70;20155;-83
2023/09/01 10:54:59;;;;;;;3.75;2.28;;;;;;;34.54;26.75;92834.44;2041438;70;20616;-84
2023/09/01 10:57:50;;;;;;;3.75;2.22;;;;;;;37.79;24.37;92841.16;2040910;70;20226;-83
2023/09/01 11:00:28;;;;;;;2.67;2.05;;;;;;;39.12;22.74;92836.28;2041295;70;20616;-84
2023/09/01 11:03:27;;;;;;;2.88;2.13;;;;;;;38.46;22.48;92835.50;2041487;70;20539;-84
2023/09/01 11:05:57;;;;;;;2.78;1.90;;;;;;;38.86;22.56;92829.38;2041443;70;20202;-83
2023/09/01 11:08:25;;;;;;;1.90;1.70;;;;;;;40.66;20.36;92826.72;2041040;70;20285;-83
2023/09/01 11:10:55;;;;;;;2.97;2.10;;;;;;;40.94;20.62;92828.16;2041435;70;20620;-83
2023/09/01 11:13:24;;;;;;;2.10;1.58;;;;;;;40.97;21.11;92835.41;2041314;70;20154;-83
2023/09/01 11:15:50;;;;;;;2.47;1.75;;;;;;;40.71;20.25;92827.91;2041095;70;20509;-83
2023/09/01 11:18:21;;;;;;;2.67;1.83;;;;;;;43.32;17.66;92828.63;2047004;70;20146;-84
2023/09/01 11:20:48;;;;;;;3.80;2.13;;;;;;;43.73;18.98;92825.38;2055308;70;20177;-84
2023/09/01 11:23:21;;;;;;;1.98;1.80;;;;;;;42.89;18.20;92827.59;2055340;69;20150;-84
2023/09/01 11:25:48;;;;;;;1.65;1.55;;;;;;;44.76;16.86;92826.75;2055347;70;20179;-84
2023/09/01 11:28:14;;;;;;;1.70;1.60;;;;;;;43.27;18.44;92821.56;2054676;70;20229;-84
2023/09/01 11:31:04;;;;;;;1.95;1.45;;;;;;;45.90;17.48;92821.03;2055351;69;20155;-84
2023/09/01 11:33:33;;;;;;;1.98;1.60;;;;;;;40.44;19.31;92799.75;2055195;70;20217;-84
2023/09/01 11:36:04;;;;;;;1.65;1.55;;;;;;;45.03;18.14;92807.13;2051955;70;20238;-84